Flight Briefing for CPX241

Departure Arrival
Huntsville International Airport (KHSV)
Click to view FAA NOTAMS
Miami International Airport (KMIA)
Click to view FAA NOTAMS
Departure Time Arrival Time
N/A N/A
Aircraft Distance
B767-300BDSF 629nm
Departure METAR Arrival METAR
KHSV 200853Z AUTO 00000KT 10SM CLR 02/01 A3024 RMK AO2 SLP241 T00220006 57010 KMIA 200853Z 33007KT 10SM BKN004 BKN031 OVC050 18/18 A2995 RMK AO2 RAE02 SLP143 P0000 60000 T01830183 56014
Suggested Route
RMG ATL YANTI Q89 PRMUS OMN HILEY7


View recent IFR Routes data
Notes



Charts and Procedures

Charts for KHSV
No chart available
Charts for KMIA
No chart available

Windy.com Weather Map